YTYH weather

Tyagarah Airport
New South Wales, Australia

Public forecast

Using degrees Celsius for public forecast. Weather courtesy of forecast.io.

Closest aviation weather report (METAR) to Tyagarah Airport

Closest report is Ballina Byron Gateway Airport, 14.4 nm (26.6 km) S. Retrieved 2020/07/03 22:00 UTC (1 hour ago):

YBNA 032200Z AUTO 29009KT 9999 // NCD 13/06 Q1019

Closest aviation forecast (TAF) to Tyagarah Airport

Closest forecast is Gold Coast Airport, 25.9 nm (48.1 km) N. Retrieved 2020/07/03 18:00 UTC (5 hours ago):

TAF YBCG 031701Z 0318/0418 27008KT CAVOK FM040000 23013KT CAVOK FM041000 22005KT CAVOK